地図

経路データ

SID SEASON NUMBER BASIN SUBBASIN NAME ISO_TIME NATURE LAT LON WMO_WIND WMO_PRES WMO_AGENCY TRACK_TYPE DIST2LAND LANDFALL IFLAG USA_AGENCY USA_ATCF_ID USA_LAT USA_LON USA_RECORD USA_STATUS USA_WIND USA_PRES USA_SSHS USA_R34_NE USA_R34_SE USA_R34_SW USA_R34_NW USA_R50_NE USA_R50_SE USA_R50_SW USA_R50_NW USA_R64_NE USA_R64_SE USA_R64_SW USA_R64_NW USA_POCI USA_ROCI USA_RMW USA_EYE TOKYO_LAT TOKYO_LON TOKYO_GRADE TOKYO_WIND TOKYO_PRES TOKYO_R50_DIR TOKYO_R50_LONG TOKYO_R50_SHORT TOKYO_R30_DIR TOKYO_R30_LONG TOKYO_R30_SHORT TOKYO_LAND CMA_LAT CMA_LON CMA_CAT CMA_WIND CMA_PRES HKO_LAT HKO_LON HKO_CAT HKO_WIND HKO_PRES NEWDELHI_LAT NEWDELHI_LON NEWDELHI_GRADE NEWDELHI_WIND NEWDELHI_PRES NEWDELHI_CI NEWDELHI_DP NEWDELHI_POCI REUNION_LAT REUNION_LON REUNION_TYPE REUNION_WIND REUNION_PRES REUNION_TNUM REUNION_CI REUNION_RMW REUNION_R34_NE REUNION_R34_SE REUNION_R34_SW REUNION_R34_NW REUNION_R50_NE REUNION_R50_SE REUNION_R50_SW REUNION_R50_NW REUNION_R64_NE REUNION_R64_SE REUNION_R64_SW REUNION_R64_NW BOM_LAT BOM_LON BOM_TYPE BOM_WIND BOM_PRES BOM_TNUM BOM_CI BOM_RMW BOM_R34_NE BOM_R34_SE BOM_R34_SW BOM_R34_NW BOM_R50_NE BOM_R50_SE BOM_R50_SW BOM_R50_NW BOM_R64_NE BOM_R64_SE BOM_R64_SW BOM_R64_NW BOM_ROCI BOM_POCI BOM_EYE BOM_POS_METHOD BOM_PRES_METHOD NADI_LAT NADI_LON NADI_CAT NADI_WIND NADI_PRES WELLINGTON_LAT WELLINGTON_LON WELLINGTON_WIND WELLINGTON_PRES DS824_LAT DS824_LON DS824_STAGE DS824_WIND DS824_PRES TD9636_LAT TD9636_LON TD9636_STAGE TD9636_WIND TD9636_PRES TD9635_LAT TD9635_LON TD9635_WIND TD9635_PRES TD9635_ROCI NEUMANN_LAT NEUMANN_LON NEUMANN_CLASS NEUMANN_WIND NEUMANN_PRES MLC_LAT MLC_LON MLC_CLASS MLC_WIND MLC_PRES USA_GUST BOM_GUST BOM_GUST_PER REUNION_GUST REUNION_GUST_PER USA_SEAHGT USA_SEARAD_NE USA_SEARAD_SE USA_SEARAD_SW USA_SEARAD_NW STORM_SPEED STORM_DIR
2020228N12322 2020 54 NA NA MARCO 2020-08-15 00:00:00 NR 11.6000 -37.8000 PROVISIONAL 1639 1620 O_____________ nhc_working_bt AL142020 11.6000 -37.8000 DB 20 1010 -3 1012 120 70 17 273
2020228N12322 2020 54 NA NA MARCO 2020-08-15 03:00:00 NR 11.6505 -38.6875 PROVISIONAL 1616 1541 P_____________ AL142020 11.6505 -38.6875 DB 20 1010 -3 1012 120 70 18 273
2020228N12322 2020 54 NA NA MARCO 2020-08-15 06:00:00 NR 11.7000 -39.6000 PROVISIONAL 1532 1449 O_____________ nhc_working_bt AL142020 11.7000 -39.6000 DB 20 1010 -3 1012 120 70 18 273
2020228N12322 2020 54 NA NA MARCO 2020-08-15 09:00:00 NR 11.7498 -40.5500 PROVISIONAL 1440 1376 P_____________ AL142020 11.7498 -40.5500 DB 20 1010 -3 1012 120 70 19 273
2020228N12322 2020 54 NA NA MARCO 2020-08-15 12:00:00 NR 11.8000 -41.5000 PROVISIONAL 1367 1290 O_____________ nhc_working_bt AL142020 11.8000 -41.5000 DB 20 1010 -3 1012 120 70 18 273
2020228N12322 2020 54 NA NA MARCO 2020-08-15 15:00:00 NR 11.8496 -42.4075 PROVISIONAL 1290 1225 P_____________ AL142020 11.8496 -42.4075 DB 20 1010 -3 1012 120 70 18 273
2020228N12322 2020 54 NA NA MARCO 2020-08-15 18:00:00 NR 11.9000 -43.3000 PROVISIONAL 1225 1163 O_____________ nhc_working_bt AL142020 11.9000 -43.3000 DB 20 1010 -3 1012 120 70 18 273
2020228N12322 2020 54 NA NA MARCO 2020-08-15 21:00:00 NR 11.9496 -44.1925 PROVISIONAL 1155 1106 P_____________ AL142020 11.9496 -44.1925 DB 20 1010 -3 1012 120 70 18 273
2020228N12322 2020 54 NA NA MARCO 2020-08-16 00:00:00 NR 12.0000 -45.1000 PROVISIONAL 1099 1041 O_____________ nhc_working_bt AL142020 12.0000 -45.1000 DB 20 1010 -3 1012 120 70 18 273
2020228N12322 2020 54 NA NA MARCO 2020-08-16 03:00:00 NR 12.0498 -46.0500 PROVISIONAL 1035 995 P_____________ AL142020 12.0498 -46.0500 DB 20 1010 -3 1012 120 70 19 273
2020228N12322 2020 54 NA NA MARCO 2020-08-16 06:00:00 NR 12.1000 -47.0000 PROVISIONAL 988 935 O_____________ nhc_working_bt AL142020 12.1000 -47.0000 DB 20 1010 -3 1012 120 70 18 273
2020228N12322 2020 54 NA NA MARCO 2020-08-16 09:00:00 NR 12.1495 -47.8926 PROVISIONAL 929 893 P_____________ AL142020 12.1495 -47.8926 DB 22 1009 -3 1012 120 70 18 273
2020228N12322 2020 54 NA NA MARCO 2020-08-16 12:00:00 NR 12.2000 -48.8000 PROVISIONAL 888 844 O_____________ nhc_working_bt AL142020 12.2000 -48.8000 DB 25 1009 -3 1012 120 70 18 273
2020228N12322 2020 54 NA NA MARCO 2020-08-16 15:00:00 NR 12.2497 -49.7776 PROVISIONAL 840 813 P_____________ AL142020 12.2497 -49.7776 DB 25 1009 -3 1012 120 70 20 273
2020228N12322 2020 54 NA NA MARCO 2020-08-16 18:00:00 NR 12.3000 -50.8000 PROVISIONAL 808 763 O_____________ nhc_working_bt AL142020 12.3000 -50.8000 DB 25 1009 -3 1012 120 70 20 273
2020228N12322 2020 54 NA NA MARCO 2020-08-16 21:00:00 NR 12.3497 -51.8425 PROVISIONAL 763 744 P_____________ AL142020 12.3497 -51.8425 DB 25 1009 -3 1012 120 70 21 273
2020228N12322 2020 54 NA NA MARCO 2020-08-17 00:00:00 NR 12.4000 -52.9000 PROVISIONAL 741 728 O_____________ nhc_working_bt AL142020 12.4000 -52.9000 DB 25 1009 -3 1012 120 70 20 273
2020228N12322 2020 54 NA NA MARCO 2020-08-17 03:00:00 NR 12.4419 -53.9352 PROVISIONAL 728 674 P_____________ AL142020 12.4419 -53.9352 DB 25 1009 -3 1011 120 70 21 273
2020228N12322 2020 54 NA NA MARCO 2020-08-17 06:00:00 NR 12.5000 -55.0000 PROVISIONAL 667 574 O_____________ nhc_working_bt AL142020 12.5000 -55.0000 DB 25 1009 -3 1011 120 70 22 274
2020228N12322 2020 54 NA NA MARCO 2020-08-17 09:00:00 NR 12.5923 -56.1425 PROVISIONAL 574 470 P_____________ AL142020 12.5923 -56.1425 DB 25 1009 -3 1010 120 70 23 275
2020228N12322 2020 54 NA NA MARCO 2020-08-17 12:00:00 NR 12.7000 -57.3000 PROVISIONAL 461 368 O_____________ nhc_working_bt AL142020 12.7000 -57.3000 DB 25 1009 -3 1010 120 70 22 275
2020228N12322 2020 54 NA NA MARCO 2020-08-17 15:00:00 NR 12.7995 -58.4151 PROVISIONAL 368 301 P_____________ AL142020 12.7995 -58.4151 DB 25 1009 -3 1010 120 70 22 275
2020228N12322 2020 54 NA CS MARCO 2020-08-17 18:00:00 NR 12.9000 -59.5000 PROVISIONAL 295 263 O_____________ nhc_working_bt AL142020 12.9000 -59.5000 DB 25 1009 -3 1010 120 70 21 275
2020228N12322 2020 54 NA CS MARCO 2020-08-17 21:00:00 NR 12.9996 -60.5651 PROVISIONAL 261 257 P_____________ AL142020 12.9996 -60.5651 DB 27 1009 -3 1010 120 70 21 276
2020228N12322 2020 54 NA CS MARCO 2020-08-18 00:00:00 NR 13.1000 -61.6000 PROVISIONAL 268 268 O_____________ nhc_working_bt AL142020 13.1000 -61.6000 DB 30 1009 -3 1010 120 70 20 276
2020228N12322 2020 54 NA CS MARCO 2020-08-18 03:00:00 NR 13.2072 -62.6225 PROVISIONAL 279 279 P_____________ AL142020 13.2072 -62.6225 DB 30 1009 -3 1010 120 70 20 276
2020228N12322 2020 54 NA CS MARCO 2020-08-18 06:00:00 NR 13.3000 -63.6000 PROVISIONAL 296 296 O_____________ nhc_working_bt AL142020 13.3000 -63.6000 DB 30 1009 -3 1010 120 70 19 275
2020228N12322 2020 54 NA CS MARCO 2020-08-18 09:00:00 NR 13.3647 -64.5300 PROVISIONAL 315 315 P_____________ AL142020 13.3647 -64.5300 DB 30 1008 -3 1011 120 70 18 273
2020228N12322 2020 54 NA CS MARCO 2020-08-18 12:00:00 NR 13.4000 -65.4000 PROVISIONAL 320 313 O_____________ nhc_working_bt AL142020 13.4000 -65.4000 DB 30 1008 -3 1013 120 70 16 271
2020228N12322 2020 54 NA CS MARCO 2020-08-18 15:00:00 NR 13.3996 -66.2151 PROVISIONAL 313 289 P_____________ AL142020 13.3996 -66.2151 DB 30 1008 -3 1012 120 70 16 270
2020228N12322 2020 54 NA CS MARCO 2020-08-18 18:00:00 DS 13.4000 -67.0000 PROVISIONAL 289 248 O_____________ nhc_working_bt AL142020 13.4000 -67.0000 LO 30 1008 -3 1012 120 70 15 272
2020228N12322 2020 54 NA CS MARCO 2020-08-18 21:00:00 DS 13.4422 -67.8000 PROVISIONAL 248 210 P_____________ AL142020 13.4422 -67.8000 LO 30 1008 -3 1012 120 70 16 274
2020228N12322 2020 54 NA CS MARCO 2020-08-19 00:00:00 DS 13.5000 -68.6000 PROVISIONAL 210 165 O_____________ nhc_working_bt AL142020 13.5000 -68.6000 LO 30 1008 -3 1012 120 70 40 16 274
2020228N12322 2020 54 NA CS MARCO 2020-08-19 03:00:00 DS 13.5422 -69.4001 PROVISIONAL 165 162 P_____________ AL142020 13.5422 -69.4001 LO 30 1008 -3 1012 120 70 16 274
2020228N12322 2020 54 NA CS MARCO 2020-08-19 06:00:00 DS 13.6000 -70.2000 PROVISIONAL 167 155 O_____________ nhc_working_bt AL142020 13.6000 -70.2000 LO 30 1008 -3 1012 120 70 16 275
2020228N12322 2020 54 NA CS MARCO 2020-08-19 09:00:00 DS 13.6847 -71.0001 PROVISIONAL 155 145 P_____________ AL142020 13.6847 -71.0001 LO 30 1008 -3 1012 120 70 16 277
2020228N12322 2020 54 NA CS MARCO 2020-08-19 12:00:00 DS 13.8000 -71.8000 PROVISIONAL 157 157 O_____________ nhc_working_bt AL142020 13.8000 -71.8000 LO 30 1008 -3 1012 120 70 16 280
2020228N12322 2020 54 NA CS MARCO 2020-08-19 15:00:00 DS 13.9572 -72.5924 PROVISIONAL 201 201 P_____________ AL142020 13.9572 -72.5924 LO 30 1008 -3 1012 120 70 16 281
2020228N12322 2020 54 NA CS MARCO 2020-08-19 18:00:00 DS 14.1000 -73.4000 PROVISIONAL 249 249 O_____________ nhc_working_bt AL142020 14.1000 -73.4000 LO 30 1008 -3 1012 120 70 40 16 278
2020228N12322 2020 54 NA CS MARCO 2020-08-19 21:00:00 DS 14.1722 -74.2351 PROVISIONAL 311 311 P_____________ AL142020 14.1722 -74.2351 LO 30 1008 -3 1012 120 70 17 273
2020228N12322 2020 54 NA CS MARCO 2020-08-20 00:00:00 DS 14.2000 -75.1000 PROVISIONAL 349 349 O_____________ nhc_working_bt AL142020 14.2000 -75.1000 LO 30 1008 -3 1012 120 70 40 17 271
2020228N12322 2020 54 NA CS MARCO 2020-08-20 03:00:00 DS 14.1997 -75.9927 PROVISIONAL 377 377 P_____________ AL142020 14.1997 -75.9927 LO 30 1008 -3 1012 120 70 17 270
2020228N12322 2020 54 NA CS MARCO 2020-08-20 06:00:00 DS 14.2000 -76.9000 PROVISIONAL 393 391 O_____________ nhc_working_bt AL142020 14.2000 -76.9000 LO 30 1008 -3 1012 120 70 40 18 271
2020228N12322 2020 54 NA CS MARCO 2020-08-20 09:00:00 DS 14.2349 -77.8225 PROVISIONAL 396 384 P_____________ AL142020 14.2349 -77.8225 LO 30 1007 -3 1011 135 70 19 280
2020228N12322 2020 54 NA CS MARCO 2020-08-20 12:00:00 TS 14.5333 -78.8000 PROVISIONAL 396 391 O_____________ nhc_working_bt AL142020 14.3000 -78.7000 TD 30 1007 -1 1011 150 70 40 17 277
2020228N12322 2020 54 NA CS MARCO 2020-08-20 15:00:00 TS 14.4300 -79.5882 PROVISIONAL 382 311 P_____________ AL142020 14.3920 -79.4725 TD 30 1007 -1 1011 150 60 15 262
2020228N12322 2020 54 NA CS MARCO 2020-08-20 18:00:00 TS 14.3200 -80.3200 PROVISIONAL 311 235 O_____________ nhc_working_bt AL142020 14.5000 -80.2000 TD 30 1007 -1 1011 150 50 40 14 270
2020228N12322 2020 54 NA CS MARCO 2020-08-20 21:00:00 TS 14.4299 -81.0437 PROVISIONAL 235 154 P_____________ AL142020 14.5700 -80.9728 TD 30 1007 -1 1011 150 50 14 286
2020228N12322 2020 54 NA CS MARCO 2020-08-21 00:00:00 TS 14.7000 -81.7000 PROVISIONAL 154 97 O_____________ nhc_working_bt AL142020 14.7000 -81.7000 TD 30 1007 -1 1011 150 50 40 13 291
2020228N12322 2020 54 NA CS MARCO 2020-08-21 03:00:00 TS 14.8881 -82.2587 PROVISIONAL 86 44 P_____________ AL142020 14.9399 -82.3525 TD 30 1007 -1 1011 150 50 11 294
2020228N12322 2020 54 NA CS MARCO 2020-08-21 06:00:00 TS 15.1667 -82.7667 PROVISIONAL 39 24 O_____________ nhc_working_bt AL142020 15.3000 -82.9000 TD 30 1007 -1 1011 150 50 40 13 305
2020228N12322 2020 54 NA CS MARCO 2020-08-21 09:00:00 TS 15.6093 -83.3404 PROVISIONAL 35 33 P_____________ AL142020 15.7624 -83.3600 TD 30 1007 -1 1010 150 50 14 315
2020228N12322 2020 54 NA CS MARCO 2020-08-21 12:00:00 TS 16.1667 -83.8000 PROVISIONAL 69 69 O_____________ nhc_working_bt AL142020 16.3000 -83.7000 TD 30 1008 -1 1010 150 50 40 13 332
2020228N12322 2020 54 NA CS MARCO 2020-08-21 15:00:00 TS 16.7905 -83.9856 PROVISIONAL 116 116 P_____________ AL142020 16.8573 -83.9228 TD 30 1008 -1 1010 135 35 13 347
2020228N12322 2020 54 NA CS MARCO 2020-08-21 18:00:00 TS 17.4000 -84.1000 PROVISIONAL 179 179 O_____________ nhc_working_bt AL142020 17.4000 -84.1000 TD 30 1008 -1 1010 120 20 40 12 342
2020228N12322 2020 54 NA CS MARCO 2020-08-21 21:00:00 TS 17.8800 -84.3659 PROVISIONAL 226 226 P_____________ AL142020 17.8650 -84.3352 TD 32 1007 -1 1010 150 20 11 329
2020228N12322 2020 54 NA CS MARCO 2020-08-22 00:00:00 TS 18.3000 -84.6667 PROVISIONAL 268 267 O_____________ nhc_working_bt AL142020 18.3000 -84.6000 TS 35 1007 0 80 1010 180 20 45 10 325
2020228N12322 2020 54 NA CS MARCO 2020-08-22 03:00:00 TS 18.7017 -84.9757 PROVISIONAL 267 235 P_____________ AL142020 18.7351 -84.9372 TS 37 1006 0 70 1010 180 20 10 329
2020228N12322 2020 54 NA CS MARCO 2020-08-22 06:00:00 TS 19.1333 -85.2000 PROVISIONAL 235 222 O_____________ nhc_working_bt AL142020 19.2000 -85.2000 TS 40 1005 0 60 1010 180 20 50 12 30 10 347
2020228N12322 2020 54 NA CS MARCO 2020-08-22 09:00:00 TS 19.6583 -85.2156 PROVISIONAL 215 183 P_____________ AL142020 19.7424 -85.2231 TS 47 999 0 50 1009 195 15 12 30 11 0
2020228N12322 2020 54 NA CS MARCO 2020-08-22 12:00:00 TS 20.2333 -85.2000 PROVISIONAL 183 123 O_____________ nhc_working_bt AL142020 20.3000 -85.2000 TS 55 993 0 40 40 11 30 20 20 1009 210 10 65 12 30 12 355
2020228N12322 2020 54 NA CS MARCO 2020-08-22 15:00:00 TS 20.8341 -85.3241 PROVISIONAL 123 76 P_____________ AL142020 20.8149 -85.3051 TS 55 992 0 45 60 11 35 20 20 1009 195 10 12 30 12 345
2020228N12322 2020 54 NA CS MARCO 2020-08-22 18:00:00 TS 21.4000 -85.5333 PROVISIONAL 76 70 O_____________ nhc_working_bt AL142020 21.3000 -85.5000 TS 55 992 0 50 80 11 40 20 20 11 1010 180 10 65 12 30 30 11 336
2020228N12322 2020 54 NA GM MARCO 2020-08-22 21:00:00 TS 21.8559 -85.8018 PROVISIONAL 82 82 P_____________ AL142020 21.7500 -85.7776 TS 55 993 0 50 75 11 35 20 20 11 1009 165 10 12 45 10 329
2020228N12322 2020 54 NA GM MARCO 2020-08-23 00:00:00 TS 22.2667 -86.1000 PROVISIONAL 121 121 O_____________ nhc_working_bt AL142020 22.2000 -86.1000 TS 55 994 0 50 70 11 30 20 20 11 1009 150 10 65 12 60 10 328
2020228N12322 2020 54 NA GM MARCO 2020-08-23 03:00:00 TS 22.6774 -86.3670 PROVISIONAL 147 147 P_____________ AL142020 22.6850 -86.4076 TS 57 994 0 50 60 11 30 20 20 11 1009 135 10 12 60 10 330
2020228N12322 2020 54 NA GM MARCO 2020-08-23 06:00:00 TS 23.1333 -86.6333 PROVISIONAL 183 183 O_____________ nhc_working_bt AL142020 23.2000 -86.7000 TS 60 994 0 50 50 11 30 20 20 11 1009 120 10 75 12 60 30 30 12 333
2020228N12322 2020 54 NA GM MARCO 2020-08-23 09:00:00 TS 23.7067 -86.9314 PROVISIONAL 246 246 P_____________ AL142020 23.7500 -86.9799 TS 60 993 0 55 50 15 35 20 20 11 1009 120 10 13 336
2020228N12322 2020 54 NA GM MARCO 2020-08-23 12:00:00 TS 24.3000 -87.2000 PROVISIONAL 313 313 O_____________ nhc_working_bt AL142020 24.3000 -87.2000 TS 60 993 0 60 50 20 40 20 20 11 1009 120 10 75 12 339
2020228N12322 2020 54 NA GM MARCO 2020-08-23 15:00:00 TS 24.8049 -87.4043 PROVISIONAL 370 370 P_____________ AL142020 24.7999 -87.3229 TS 62 992 0 75 60 25 50 25 25 15 1009 120 10 11 343
2020228N12322 2020 54 NA GM MARCO 2020-08-23 18:00:00 TS 25.3000 -87.5333 PROVISIONAL 425 386 O_____________ nhc_working_bt AL142020 25.3000 -87.4000 HU 65 991 1 90 70 30 60 30 30 20 15 15 1009 120 10 80 12 60 30 30 11 352
2020228N12322 2020 54 NA GM MARCO 2020-08-23 21:00:00 TS 25.8649 -87.5696 PROVISIONAL 376 325 P_____________ AL142020 25.8650 -87.4926 HU 62 993 0 80 60 30 55 30 30 20 1009 120 10 12 75 52 52 11 357
2020228N12322 2020 54 NA GM MARCO 2020-08-24 00:00:00 TS 26.4000 -87.6000 PROVISIONAL 325 281 O_____________ nhc_working_bt AL142020 26.4000 -87.6000 TS 60 996 0 70 50 30 50 30 30 20 1009 120 10 75 12 90 75 75 75 10 352
2020228N12322 2020 54 NA GM MARCO 2020-08-24 03:00:00 TS 26.8150 -87.7177 PROVISIONAL 281 232 P_____________ AL142020 26.8149 -87.7278 TS 57 999 0 80 40 45 30 1009 110 20 12 90 75 75 75 8 341
2020228N12322 2020 54 NA GM MARCO 2020-08-24 06:00:00 TS 27.2000 -87.9000 PROVISIONAL 232 184 O_____________ nhc_working_bt AL142020 27.2000 -87.9000 TS 55 1003 0 90 30 40 30 1010 100 30 65 12 90 75 75 75 9 335
2020228N12322 2020 54 NA GM MARCO 2020-08-24 09:00:00 TS 27.6651 -88.1571 PROVISIONAL 169 121 P_____________ AL142020 27.6651 -88.1571 TS 50 1004 0 90 30 15 1010 100 35 12 75 67 67 67 10 334
2020228N12322 2020 54 NA GM MARCO 2020-08-24 12:00:00 TS 28.1000 -88.4000 PROVISIONAL 121 88 O_____________ nhc_working_bt AL142020 28.1000 -88.4000 TS 45 1006 0 90 30 1010 100 40 55 12 60 60 60 60 8 340
2020228N12322 2020 54 NA GM MARCO 2020-08-24 15:00:00 TS 28.4437 -88.4836 PROVISIONAL 88 59 P_____________ AL142020 28.4415 -88.4797 TS 40 1007 0 80 1010 100 40 12 60 6 344
2020228N12322 2020 54 NA GM MARCO 2020-08-24 18:00:00 TS 28.7000 -88.6000 PROVISIONAL 59 22 O_____________ nhc_working_bt AL142020 28.7000 -88.6000 TS 35 1008 0 70 1010 100 40 45 12 60 6 323
2020228N12322 2020 54 NA GM MARCO 2020-08-24 21:00:00 TS 28.9168 -88.8914 PROVISIONAL 22 0 P_____________ AL142020 28.9314 -88.9548 TS 35 1006 0 70 1010 100 40 12 60 7 301
2020228N12322 2020 54 NA GM MARCO 2020-08-24 23:00:00 TS 28.9907 -89.1533 PROVISIONAL 9 9 V_____________ nhc_working_bt AL142020 29.0000 -89.2000 TS 35 1006 0 70 1010 100 40 12 60 7 283
2020228N12322 2020 54 NA GM MARCO 2020-08-25 00:00:00 TS 29.0000 -89.3000 PROVISIONAL 11 11 O_____________ nhc_working_bt AL142020 29.0000 -89.3000 TS 35 1006 0 70 1010 100 70 45 12 60 10 266
2020228N12322 2020 54 NA GM MARCO 2020-08-25 03:00:00 TS 28.9387 -89.9187 PROVISIONAL 29 22 P_____________ AL142020 28.9287 -89.8695 TS 30 1007 -1 1010 100 70 12 261
2020228N12322 2020 54 NA GM MARCO 2020-08-25 06:00:00 DS 28.8000 -90.7000 PROVISIONAL 34 O_____________ nhc_working_bt AL142020 28.8000 -90.7000 LO 25 1008 -3 1011 100 70 35 14 259

IBTrACS Databaseについて

本データベースは、米国NOAAが公開する1842年以降の世界の熱帯低気圧のベストトラックデータアーカイブInternational Best Track Archive for Climate Stewardship (IBTrACS)を、ウェブで閲覧しやすい形式に変換したものです。

最終更新日:2021-12-06